sensor_id;sensor_type;location;lat;lon;timestamp;P1;durP1;ratioP1;P2;durP2;ratioP2
61962;SDS011;47927;42.646;23.096;2023-05-27T00:02:00;6.32;;;5.20;;
61962;SDS011;47927;42.646;23.096;2023-05-27T00:04:26;8.05;;;5.68;;
61962;SDS011;47927;42.646;23.096;2023-05-27T00:06:51;12.93;;;5.72;;
61962;SDS011;47927;42.646;23.096;2023-05-27T00:09:17;7.55;;;5.07;;
61962;SDS011;47927;42.646;23.096;2023-05-27T00:11:43;6.97;;;5.35;;
61962;SDS011;47927;42.646;23.096;2023-05-27T00:14:09;7.40;;;5.70;;
61962;SDS011;47927;42.646;23.096;2023-05-27T00:16:34;9.20;;;6.18;;
61962;SDS011;47927;42.646;23.096;2023-05-27T00:19:01;7.90;;;6.28;;
61962;SDS011;47927;42.646;23.096;2023-05-27T00:21:28;8.15;;;6.60;;
61962;SDS011;47927;42.646;23.096;2023-05-27T00:23:53;10.85;;;6.55;;
61962;SDS011;47927;42.646;23.096;2023-05-27T00:26:19;10.90;;;7.38;;
61962;SDS011;47927;42.646;23.096;2023-05-27T00:28:48;9.88;;;6.82;;
61962;SDS011;47927;42.646;23.096;2023-05-27T00:31:14;7.38;;;4.85;;
61962;SDS011;47927;42.646;23.096;2023-05-27T00:33:40;7.22;;;4.05;;
61962;SDS011;47927;42.646;23.096;2023-05-27T00:36:05;6.30;;;4.32;;
61962;SDS011;47927;42.646;23.096;2023-05-27T00:38:31;5.47;;;4.10;;
61962;SDS011;47927;42.646;23.096;2023-05-27T00:40:57;6.43;;;4.57;;
61962;SDS011;47927;42.646;23.096;2023-05-27T00:43:26;8.05;;;5.15;;
61962;SDS011;47927;42.646;23.096;2023-05-27T00:45:52;7.95;;;5.97;;
61962;SDS011;47927;42.646;23.096;2023-05-27T00:48:17;8.27;;;6.47;;
61962;SDS011;47927;42.646;23.096;2023-05-27T00:50:43;11.20;;;7.63;;
61962;SDS011;47927;42.646;23.096;2023-05-27T00:53:09;11.45;;;8.75;;
61962;SDS011;47927;42.646;23.096;2023-05-27T00:55:35;9.30;;;7.70;;
61962;SDS011;47927;42.646;23.096;2023-05-27T00:58:01;10.15;;;7.60;;
61962;SDS011;47927;42.646;23.096;2023-05-27T01:00:28;10.98;;;6.43;;
61962;SDS011;47927;42.646;23.096;2023-05-27T01:02:54;5.93;;;3.83;;
61962;SDS011;47927;42.646;23.096;2023-05-27T01:05:20;5.15;;;3.30;;
61962;SDS011;47927;42.646;23.096;2023-05-27T01:08:08;5.28;;;2.95;;
61962;SDS011;47927;42.646;23.096;2023-05-27T01:11:14;3.90;;;2.28;;
61962;SDS011;47927;42.646;23.096;2023-05-27T01:13:48;3.05;;;1.77;;
61962;SDS011;47927;42.646;23.096;2023-05-27T01:16:17;2.30;;;1.38;;
61962;SDS011;47927;42.646;23.096;2023-05-27T01:18:47;3.25;;;1.70;;
61962;SDS011;47927;42.646;23.096;2023-05-27T01:21:15;2.20;;;1.30;;
61962;SDS011;47927;42.646;23.096;2023-05-27T01:23:46;2.63;;;1.53;;
61962;SDS011;47927;42.646;23.096;2023-05-27T01:26:13;3.15;;;1.60;;
61962;SDS011;47927;42.646;23.096;2023-05-27T01:28:39;2.85;;;1.50;;
61962;SDS011;47927;42.646;23.096;2023-05-27T01:31:10;2.70;;;1.40;;
61962;SDS011;47927;42.646;23.096;2023-05-27T01:33:41;3.58;;;1.45;;
61962;SDS011;47927;42.646;23.096;2023-05-27T01:36:14;2.88;;;1.38;;
61962;SDS011;47927;42.646;23.096;2023-05-27T01:38:43;2.67;;;1.20;;
61962;SDS011;47927;42.646;23.096;2023-05-27T01:41:11;3.22;;;1.40;;
61962;SDS011;47927;42.646;23.096;2023-05-27T01:43:37;2.15;;;1.35;;
61962;SDS011;47927;42.646;23.096;2023-05-27T01:46:04;3.92;;;1.83;;
61962;SDS011;47927;42.646;23.096;2023-05-27T01:48:30;2.55;;;1.40;;
61962;SDS011;47927;42.646;23.096;2023-05-27T01:50:56;3.05;;;1.42;;
61962;SDS011;47927;42.646;23.096;2023-05-27T01:53:21;4.03;;;1.42;;
61962;SDS011;47927;42.646;23.096;2023-05-27T01:55:47;3.03;;;1.60;;
61962;SDS011;47927;42.646;23.096;2023-05-27T01:58:12;2.28;;;1.52;;
61962;SDS011;47927;42.646;23.096;2023-05-27T02:00:39;3.08;;;1.80;;
61962;SDS011;47927;42.646;23.096;2023-05-27T02:03:05;3.28;;;1.65;;
61962;SDS011;47927;42.646;23.096;2023-05-27T02:05:30;3.17;;;1.80;;
61962;SDS011;47927;42.646;23.096;2023-05-27T02:07:56;3.38;;;1.80;;
61962;SDS011;47927;42.646;23.096;2023-05-27T02:10:21;5.43;;;2.10;;
61962;SDS011;47927;42.646;23.096;2023-05-27T02:12:47;4.57;;;1.80;;
61962;SDS011;47927;42.646;23.096;2023-05-27T02:15:15;2.88;;;1.70;;
61962;SDS011;47927;42.646;23.096;2023-05-27T02:17:41;2.92;;;1.80;;
61962;SDS011;47927;42.646;23.096;2023-05-27T02:20:10;3.15;;;1.70;;
61962;SDS011;47927;42.646;23.096;2023-05-27T02:22:36;2.85;;;1.70;;
61962;SDS011;47927;42.646;23.096;2023-05-27T02:25:01;2.38;;;1.40;;
61962;SDS011;47927;42.646;23.096;2023-05-27T02:27:27;3.28;;;1.50;;
61962;SDS011;47927;42.646;23.096;2023-05-27T02:30:11;2.63;;;1.50;;
61962;SDS011;47927;42.646;23.096;2023-05-27T02:32:37;2.20;;;1.27;;
61962;SDS011;47927;42.646;23.096;2023-05-27T02:35:03;5.22;;;2.17;;
61962;SDS011;47927;42.646;23.096;2023-05-27T02:37:48;2.70;;;1.50;;
61962;SDS011;47927;42.646;23.096;2023-05-27T02:40:26;3.10;;;1.25;;
61962;SDS011;47927;42.646;23.096;2023-05-27T02:42:57;5.05;;;1.95;;
61962;SDS011;47927;42.646;23.096;2023-05-27T02:45:23;3.05;;;1.42;;
61962;SDS011;47927;42.646;23.096;2023-05-27T02:47:50;2.65;;;1.60;;
61962;SDS011;47927;42.646;23.096;2023-05-27T02:50:16;3.25;;;1.42;;
61962;SDS011;47927;42.646;23.096;2023-05-27T02:52:42;4.85;;;1.50;;
61962;SDS011;47927;42.646;23.096;2023-05-27T02:55:07;2.17;;;1.20;;
61962;SDS011;47927;42.646;23.096;2023-05-27T02:57:33;2.78;;;1.50;;
61962;SDS011;47927;42.646;23.096;2023-05-27T02:59:59;2.30;;;1.40;;
61962;SDS011;47927;42.646;23.096;2023-05-27T03:02:24;3.88;;;1.90;;
61962;SDS011;47927;42.646;23.096;2023-05-27T03:04:50;3.78;;;1.60;;
61962;SDS011;47927;42.646;23.096;2023-05-27T03:07:15;3.38;;;1.88;;
61962;SDS011;47927;42.646;23.096;2023-05-27T03:09:41;4.32;;;1.52;;
61962;SDS011;47927;42.646;23.096;2023-05-27T03:12:06;3.38;;;1.50;;
61962;SDS011;47927;42.646;23.096;2023-05-27T03:14:32;3.20;;;1.50;;
61962;SDS011;47927;42.646;23.096;2023-05-27T03:16:58;4.28;;;1.55;;
61962;SDS011;47927;42.646;23.096;2023-05-27T03:19:24;2.55;;;1.40;;
61962;SDS011;47927;42.646;23.096;2023-05-27T03:21:49;5.55;;;1.77;;
61962;SDS011;47927;42.646;23.096;2023-05-27T03:24:16;3.53;;;1.63;;
61962;SDS011;47927;42.646;23.096;2023-05-27T03:26:42;3.05;;;1.40;;
61962;SDS011;47927;42.646;23.096;2023-05-27T03:29:09;2.72;;;1.70;;
61962;SDS011;47927;42.646;23.096;2023-05-27T03:31:34;2.95;;;1.75;;
61962;SDS011;47927;42.646;23.096;2023-05-27T03:34:05;2.88;;;1.70;;
61962;SDS011;47927;42.646;23.096;2023-05-27T03:36:31;3.92;;;1.80;;
61962;SDS011;47927;42.646;23.096;2023-05-27T03:38:56;3.20;;;1.90;;
61962;SDS011;47927;42.646;23.096;2023-05-27T03:41:23;3.45;;;1.80;;
61962;SDS011;47927;42.646;23.096;2023-05-27T03:43:49;3.75;;;2.00;;
61962;SDS011;47927;42.646;23.096;2023-05-27T03:46:16;4.43;;;1.92;;
61962;SDS011;47927;42.646;23.096;2023-05-27T03:48:42;4.20;;;2.10;;
61962;SDS011;47927;42.646;23.096;2023-05-27T03:51:07;4.03;;;2.10;;
61962;SDS011;47927;42.646;23.096;2023-05-27T03:53:33;8.20;;;2.60;;
61962;SDS011;47927;42.646;23.096;2023-05-27T03:55:58;3.63;;;2.22;;
61962;SDS011;47927;42.646;23.096;2023-05-27T03:58:24;4.22;;;2.40;;
61962;SDS011;47927;42.646;23.096;2023-05-27T04:00:50;3.47;;;2.33;;
61962;SDS011;47927;42.646;23.096;2023-05-27T04:03:16;4.70;;;2.50;;
61962;SDS011;47927;42.646;23.096;2023-05-27T04:05:42;3.58;;;2.13;;
61962;SDS011;47927;42.646;23.096;2023-05-27T04:08:07;5.07;;;2.25;;
61962;SDS011;47927;42.646;23.096;2023-05-27T04:10:33;3.05;;;2.03;;
61962;SDS011;47927;42.646;23.096;2023-05-27T04:12:58;3.67;;;2.20;;
61962;SDS011;47927;42.646;23.096;2023-05-27T04:15:24;3.20;;;1.90;;
61962;SDS011;47927;42.646;23.096;2023-05-27T04:17:51;4.25;;;2.50;;
61962;SDS011;47927;42.646;23.096;2023-05-27T04:20:16;3.60;;;1.90;;
61962;SDS011;47927;42.646;23.096;2023-05-27T04:22:45;6.30;;;2.42;;
61962;SDS011;47927;42.646;23.096;2023-05-27T04:25:11;2.92;;;1.90;;
61962;SDS011;47927;42.646;23.096;2023-05-27T04:27:54;4.03;;;2.40;;
61962;SDS011;47927;42.646;23.096;2023-05-27T04:30:20;2.92;;;1.73;;
61962;SDS011;47927;42.646;23.096;2023-05-27T04:32:47;3.45;;;2.08;;
61962;SDS011;47927;42.646;23.096;2023-05-27T04:35:13;3.90;;;2.35;;
61962;SDS011;47927;42.646;23.096;2023-05-27T04:37:39;5.57;;;1.70;;
61962;SDS011;47927;42.646;23.096;2023-05-27T04:40:06;4.68;;;2.25;;
61962;SDS011;47927;42.646;23.096;2023-05-27T04:42:43;2.83;;;2.00;;
61962;SDS011;47927;42.646;23.096;2023-05-27T04:45:09;5.38;;;2.00;;
61962;SDS011;47927;42.646;23.096;2023-05-27T04:47:38;2.88;;;2.00;;
61962;SDS011;47927;42.646;23.096;2023-05-27T04:50:09;3.95;;;1.90;;
61962;SDS011;47927;42.646;23.096;2023-05-27T04:52:38;3.05;;;2.20;;
61962;SDS011;47927;42.646;23.096;2023-05-27T04:55:07;3.70;;;2.08;;
61962;SDS011;47927;42.646;23.096;2023-05-27T04:57:38;5.13;;;2.63;;
61962;SDS011;47927;42.646;23.096;2023-05-27T05:00:07;4.40;;;2.72;;
61962;SDS011;47927;42.646;23.096;2023-05-27T05:02:36;5.13;;;3.20;;
61962;SDS011;47927;42.646;23.096;2023-05-27T05:05:09;6.50;;;2.75;;
61962;SDS011;47927;42.646;23.096;2023-05-27T05:07:53;4.82;;;3.08;;
61962;SDS011;47927;42.646;23.096;2023-05-27T05:10:20;5.20;;;2.65;;
61962;SDS011;47927;42.646;23.096;2023-05-27T05:12:48;6.00;;;2.67;;
61962;SDS011;47927;42.646;23.096;2023-05-27T05:15:14;3.17;;;2.53;;
61962;SDS011;47927;42.646;23.096;2023-05-27T05:17:40;3.50;;;2.63;;
61962;SDS011;47927;42.646;23.096;2023-05-27T05:20:06;4.00;;;2.90;;
61962;SDS011;47927;42.646;23.096;2023-05-27T05:22:35;3.42;;;2.40;;
61962;SDS011;47927;42.646;23.096;2023-05-27T05:25:00;4.03;;;2.70;;
61962;SDS011;47927;42.646;23.096;2023-05-27T05:27:31;5.75;;;2.70;;
61962;SDS011;47927;42.646;23.096;2023-05-27T05:29:57;5.57;;;3.28;;
61962;SDS011;47927;42.646;23.096;2023-05-27T05:32:23;4.47;;;2.92;;
61962;SDS011;47927;42.646;23.096;2023-05-27T05:34:49;4.65;;;3.13;;
61962;SDS011;47927;42.646;23.096;2023-05-27T05:37:15;7.82;;;2.70;;
61962;SDS011;47927;42.646;23.096;2023-05-27T05:39:43;4.35;;;2.80;;
61962;SDS011;47927;42.646;23.096;2023-05-27T05:42:08;4.63;;;2.40;;
61962;SDS011;47927;42.646;23.096;2023-05-27T05:44:34;4.72;;;2.60;;
61962;SDS011;47927;42.646;23.096;2023-05-27T05:47:00;6.40;;;2.80;;
61962;SDS011;47927;42.646;23.096;2023-05-27T05:49:26;3.90;;;2.85;;
61962;SDS011;47927;42.646;23.096;2023-05-27T05:51:52;4.72;;;3.03;;
61962;SDS011;47927;42.646;23.096;2023-05-27T05:54:17;5.30;;;2.80;;
61962;SDS011;47927;42.646;23.096;2023-05-27T05:56:47;5.38;;;2.60;;
61962;SDS011;47927;42.646;23.096;2023-05-27T05:59:13;4.68;;;2.70;;
61962;SDS011;47927;42.646;23.096;2023-05-27T06:01:39;4.68;;;2.90;;
61962;SDS011;47927;42.646;23.096;2023-05-27T06:04:05;5.30;;;2.60;;
61962;SDS011;47927;42.646;23.096;2023-05-27T06:06:38;3.72;;;2.90;;
61962;SDS011;47927;42.646;23.096;2023-05-27T06:09:32;4.38;;;2.58;;
61962;SDS011;47927;42.646;23.096;2023-05-27T06:12:01;3.63;;;2.55;;
61962;SDS011;47927;42.646;23.096;2023-05-27T06:14:32;4.60;;;2.50;;
61962;SDS011;47927;42.646;23.096;2023-05-27T06:16:58;6.57;;;2.60;;
61962;SDS011;47927;42.646;23.096;2023-05-27T06:19:24;6.85;;;3.30;;
61962;SDS011;47927;42.646;23.096;2023-05-27T06:21:49;5.25;;;3.42;;
61962;SDS011;47927;42.646;23.096;2023-05-27T06:24:33;5.88;;;3.28;;
61962;SDS011;47927;42.646;23.096;2023-05-27T06:27:11;6.63;;;3.25;;
61962;SDS011;47927;42.646;23.096;2023-05-27T06:29:37;5.65;;;3.30;;
61962;SDS011;47927;42.646;23.096;2023-05-27T06:32:03;5.75;;;3.33;;
61962;SDS011;47927;42.646;23.096;2023-05-27T06:34:29;6.05;;;3.22;;
61962;SDS011;47927;42.646;23.096;2023-05-27T06:36:55;4.10;;;3.17;;
61962;SDS011;47927;42.646;23.096;2023-05-27T06:39:21;5.32;;;3.30;;
61962;SDS011;47927;42.646;23.096;2023-05-27T06:41:47;5.53;;;3.13;;
61962;SDS011;47927;42.646;23.096;2023-05-27T06:44:36;6.38;;;2.97;;
61962;SDS011;47927;42.646;23.096;2023-05-27T06:47:11;4.97;;;3.10;;
61962;SDS011;47927;42.646;23.096;2023-05-27T06:49:37;5.07;;;3.28;;
61962;SDS011;47927;42.646;23.096;2023-05-27T06:52:05;5.10;;;3.45;;
61962;SDS011;47927;42.646;23.096;2023-05-27T06:54:38;7.07;;;3.40;;
61962;SDS011;47927;42.646;23.096;2023-05-27T06:57:24;5.18;;;3.60;;
61962;SDS011;47927;42.646;23.096;2023-05-27T06:59:55;6.95;;;3.50;;
61962;SDS011;47927;42.646;23.096;2023-05-27T07:02:21;7.55;;;3.67;;
61962;SDS011;47927;42.646;23.096;2023-05-27T07:04:47;5.53;;;3.90;;
61962;SDS011;47927;42.646;23.096;2023-05-27T07:07:13;7.88;;;4.22;;
61962;SDS011;47927;42.646;23.096;2023-05-27T07:09:38;8.43;;;4.82;;
61962;SDS011;47927;42.646;23.096;2023-05-27T07:12:04;7.18;;;4.57;;
61962;SDS011;47927;42.646;23.096;2023-05-27T07:14:50;6.78;;;4.32;;
61962;SDS011;47927;42.646;23.096;2023-05-27T07:17:17;7.55;;;3.70;;
61962;SDS011;47927;42.646;23.096;2023-05-27T07:19:42;7.45;;;3.10;;
61962;SDS011;47927;42.646;23.096;2023-05-27T07:22:13;7.60;;;3.63;;
61962;SDS011;47927;42.646;23.096;2023-05-27T07:24:39;5.07;;;3.00;;
61962;SDS011;47927;42.646;23.096;2023-05-27T07:27:05;5.20;;;3.10;;
61962;SDS011;47927;42.646;23.096;2023-05-27T07:29:33;5.03;;;2.88;;
61962;SDS011;47927;42.646;23.096;2023-05-27T07:32:11;5.70;;;3.78;;
61962;SDS011;47927;42.646;23.096;2023-05-27T07:34:37;4.20;;;3.13;;
61962;SDS011;47927;42.646;23.096;2023-05-27T07:37:03;5.50;;;3.00;;
61962;SDS011;47927;42.646;23.096;2023-05-27T07:39:29;4.00;;;2.50;;
61962;SDS011;47927;42.646;23.096;2023-05-27T07:41:54;4.32;;;2.90;;
61962;SDS011;47927;42.646;23.096;2023-05-27T07:44:21;6.47;;;2.90;;
61962;SDS011;47927;42.646;23.096;2023-05-27T07:46:46;4.60;;;2.95;;
61962;SDS011;47927;42.646;23.096;2023-05-27T07:49:12;4.90;;;3.08;;
61962;SDS011;47927;42.646;23.096;2023-05-27T07:51:47;11.30;;;6.93;;
61962;SDS011;47927;42.646;23.096;2023-05-27T07:54:13;4.60;;;2.80;;
61962;SDS011;47927;42.646;23.096;2023-05-27T07:56:38;4.07;;;2.50;;
61962;SDS011;47927;42.646;23.096;2023-05-27T07:59:04;5.03;;;3.30;;
61962;SDS011;47927;42.646;23.096;2023-05-27T08:01:30;6.10;;;3.70;;
61962;SDS011;47927;42.646;23.096;2023-05-27T08:03:58;6.03;;;3.13;;
61962;SDS011;47927;42.646;23.096;2023-05-27T08:06:27;8.93;;;4.03;;
61962;SDS011;47927;42.646;23.096;2023-05-27T08:09:11;11.48;;;4.03;;
61962;SDS011;47927;42.646;23.096;2023-05-27T08:11:55;4.60;;;2.83;;
61962;SDS011;47927;42.646;23.096;2023-05-27T08:14:23;8.82;;;3.92;;
61962;SDS011;47927;42.646;23.096;2023-05-27T08:17:09;6.63;;;2.90;;
61962;SDS011;47927;42.646;23.096;2023-05-27T08:19:58;9.93;;;4.65;;
61962;SDS011;47927;42.646;23.096;2023-05-27T08:22:42;15.38;;;6.18;;
61962;SDS011;47927;42.646;23.096;2023-05-27T08:25:36;7.00;;;3.22;;
61962;SDS011;47927;42.646;23.096;2023-05-27T08:28:15;7.25;;;3.05;;
61962;SDS011;47927;42.646;23.096;2023-05-27T08:30:48;7.10;;;3.38;;
61962;SDS011;47927;42.646;23.096;2023-05-27T08:33:22;7.43;;;3.10;;
61962;SDS011;47927;42.646;23.096;2023-05-27T08:35:49;12.48;;;5.35;;
61962;SDS011;47927;42.646;23.096;2023-05-27T08:38:14;4.72;;;3.03;;
61962;SDS011;47927;42.646;23.096;2023-05-27T08:40:40;11.05;;;4.60;;
61962;SDS011;47927;42.646;23.096;2023-05-27T08:43:06;5.60;;;3.75;;
61962;SDS011;47927;42.646;23.096;2023-05-27T08:45:36;4.85;;;2.67;;
61962;SDS011;47927;42.646;23.096;2023-05-27T08:48:02;6.15;;;3.53;;
61962;SDS011;47927;42.646;23.096;2023-05-27T08:50:33;5.15;;;3.28;;
61962;SDS011;47927;42.646;23.096;2023-05-27T08:53:00;8.65;;;4.10;;
61962;SDS011;47927;42.646;23.096;2023-05-27T08:55:26;7.53;;;3.50;;
61962;SDS011;47927;42.646;23.096;2023-05-27T08:57:54;5.82;;;3.78;;
61962;SDS011;47927;42.646;23.096;2023-05-27T09:00:22;5.93;;;3.95;;
61962;SDS011;47927;42.646;23.096;2023-05-27T09:02:52;5.10;;;3.47;;
61962;SDS011;47927;42.646;23.096;2023-05-27T09:05:23;7.00;;;3.40;;
61962;SDS011;47927;42.646;23.096;2023-05-27T09:07:49;7.88;;;4.53;;
61962;SDS011;47927;42.646;23.096;2023-05-27T09:10:14;5.65;;;3.97;;
61962;SDS011;47927;42.646;23.096;2023-05-27T09:12:42;5.70;;;3.67;;
61962;SDS011;47927;42.646;23.096;2023-05-27T09:15:09;8.48;;;6.85;;
61962;SDS011;47927;42.646;23.096;2023-05-27T09:17:40;6.30;;;3.30;;
61962;SDS011;47927;42.646;23.096;2023-05-27T09:20:06;9.90;;;4.10;;
61962;SDS011;47927;42.646;23.096;2023-05-27T09:25:01;6.72;;;4.35;;
61962;SDS011;47927;42.646;23.096;2023-05-27T09:27:28;11.20;;;6.15;;
61962;SDS011;47927;42.646;23.096;2023-05-27T09:29:55;6.47;;;4.00;;
61962;SDS011;47927;42.646;23.096;2023-05-27T09:34:52;7.78;;;3.45;;
61962;SDS011;47927;42.646;23.096;2023-05-27T09:37:18;6.95;;;3.92;;
61962;SDS011;47927;42.646;23.096;2023-05-27T09:39:46;7.30;;;4.10;;
61962;SDS011;47927;42.646;23.096;2023-05-27T09:42:13;7.13;;;4.15;;
61962;SDS011;47927;42.646;23.096;2023-05-27T09:44:39;8.25;;;4.28;;
61962;SDS011;47927;42.646;23.096;2023-05-27T09:47:07;8.43;;;4.05;;
61962;SDS011;47927;42.646;23.096;2023-05-27T09:49:39;8.63;;;3.88;;
61962;SDS011;47927;42.646;23.096;2023-05-27T09:52:06;6.45;;;3.88;;
61962;SDS011;47927;42.646;23.096;2023-05-27T09:54:35;6.95;;;3.58;;
61962;SDS011;47927;42.646;23.096;2023-05-27T09:57:05;6.03;;;3.33;;
61962;SDS011;47927;42.646;23.096;2023-05-27T09:59:32;6.10;;;3.92;;
61962;SDS011;47927;42.646;23.096;2023-05-27T10:01:59;5.90;;;3.15;;
61962;SDS011;47927;42.646;23.096;2023-05-27T10:04:27;4.95;;;3.00;;
61962;SDS011;47927;42.646;23.096;2023-05-27T10:06:54;5.50;;;3.20;;
61962;SDS011;47927;42.646;23.096;2023-05-27T10:09:19;4.22;;;3.00;;
61962;SDS011;47927;42.646;23.096;2023-05-27T10:11:45;5.40;;;3.00;;
61962;SDS011;47927;42.646;23.096;2023-05-27T10:14:12;4.47;;;3.08;;
61962;SDS011;47927;42.646;23.096;2023-05-27T10:16:38;4.35;;;3.17;;
61962;SDS011;47927;42.646;23.096;2023-05-27T10:19:08;4.43;;;3.17;;
61962;SDS011;47927;42.646;23.096;2023-05-27T10:21:41;6.65;;;3.60;;
61962;SDS011;47927;42.646;23.096;2023-05-27T10:24:10;6.57;;;3.13;;
61962;SDS011;47927;42.646;23.096;2023-05-27T10:26:41;4.82;;;3.10;;
61962;SDS011;47927;42.646;23.096;2023-05-27T10:29:08;7.65;;;3.08;;
61962;SDS011;47927;42.646;23.096;2023-05-27T10:31:34;8.30;;;3.17;;
61962;SDS011;47927;42.646;23.096;2023-05-27T10:34:03;6.07;;;3.03;;
61962;SDS011;47927;42.646;23.096;2023-05-27T10:36:31;6.60;;;3.78;;
61962;SDS011;47927;42.646;23.096;2023-05-27T10:39:01;5.47;;;3.85;;
61962;SDS011;47927;42.646;23.096;2023-05-27T10:41:28;6.22;;;3.65;;
61962;SDS011;47927;42.646;23.096;2023-05-27T10:44:04;5.90;;;3.47;;
61962;SDS011;47927;42.646;23.096;2023-05-27T10:46:37;7.80;;;3.38;;
61962;SDS011;47927;42.646;23.096;2023-05-27T10:49:13;6.32;;;3.10;;
61962;SDS011;47927;42.646;23.096;2023-05-27T10:51:41;5.57;;;3.35;;
61962;SDS011;47927;42.646;23.096;2023-05-27T10:54:08;4.10;;;3.20;;
61962;SDS011;47927;42.646;23.096;2023-05-27T10:56:34;7.88;;;4.07;;
61962;SDS011;47927;42.646;23.096;2023-05-27T10:59:02;6.80;;;3.88;;
61962;SDS011;47927;42.646;23.096;2023-05-27T11:01:36;9.77;;;3.85;;
61962;SDS011;47927;42.646;23.096;2023-05-27T11:04:05;7.65;;;3.40;;
61962;SDS011;47927;42.646;23.096;2023-05-27T11:06:32;5.32;;;3.60;;
61962;SDS011;47927;42.646;23.096;2023-05-27T11:08:58;5.68;;;4.10;;
61962;SDS011;47927;42.646;23.096;2023-05-27T11:11:24;8.10;;;3.58;;
61962;SDS011;47927;42.646;23.096;2023-05-27T11:13:49;7.88;;;3.83;;
61962;SDS011;47927;42.646;23.096;2023-05-27T11:16:15;16.10;;;5.57;;
61962;SDS011;47927;42.646;23.096;2023-05-27T11:18:45;5.28;;;3.40;;
61962;SDS011;47927;42.646;23.096;2023-05-27T11:21:12;7.20;;;3.78;;
61962;SDS011;47927;42.646;23.096;2023-05-27T11:26:19;4.90;;;3.17;;
61962;SDS011;47927;42.646;23.096;2023-05-27T11:31:13;6.57;;;3.70;;
61962;SDS011;47927;42.646;23.096;2023-05-27T11:33:42;5.43;;;3.67;;
61962;SDS011;47927;42.646;23.096;2023-05-27T11:36:13;5.75;;;3.42;;
61962;SDS011;47927;42.646;23.096;2023-05-27T11:38:49;5.47;;;3.30;;
61962;SDS011;47927;42.646;23.096;2023-05-27T11:41:19;4.82;;;3.30;;
61962;SDS011;47927;42.646;23.096;2023-05-27T11:43:49;5.38;;;3.42;;
61962;SDS011;47927;42.646;23.096;2023-05-27T11:46:37;6.78;;;3.85;;
61962;SDS011;47927;42.646;23.096;2023-05-27T11:51:33;6.82;;;3.50;;
61962;SDS011;47927;42.646;23.096;2023-05-27T11:54:02;6.05;;;3.38;;
61962;SDS011;47927;42.646;23.096;2023-05-27T11:56:28;4.60;;;3.25;;
61962;SDS011;47927;42.646;23.096;2023-05-27T11:58:54;7.18;;;4.30;;
61962;SDS011;47927;42.646;23.096;2023-05-27T12:01:20;7.47;;;3.70;;
61962;SDS011;47927;42.646;23.096;2023-05-27T12:03:46;5.35;;;3.00;;
61962;SDS011;47927;42.646;23.096;2023-05-27T12:06:12;9.07;;;3.70;;
61962;SDS011;47927;42.646;23.096;2023-05-27T12:08:37;6.32;;;3.53;;
61962;SDS011;47927;42.646;23.096;2023-05-27T12:11:03;5.30;;;3.15;;
61962;SDS011;47927;42.646;23.096;2023-05-27T12:13:30;5.18;;;3.10;;
61962;SDS011;47927;42.646;23.096;2023-05-27T12:15:57;9.00;;;3.25;;
61962;SDS011;47927;42.646;23.096;2023-05-27T12:18:23;4.60;;;2.97;;
61962;SDS011;47927;42.646;23.096;2023-05-27T12:20:48;6.53;;;3.63;;
61962;SDS011;47927;42.646;23.096;2023-05-27T12:23:33;8.00;;;3.30;;
61962;SDS011;47927;42.646;23.096;2023-05-27T12:25:59;5.38;;;3.55;;
61962;SDS011;47927;42.646;23.096;2023-05-27T12:28:25;4.47;;;3.22;;
61962;SDS011;47927;42.646;23.096;2023-05-27T12:30:51;21.42;;;11.63;;
61962;SDS011;47927;42.646;23.096;2023-05-27T12:33:16;7.97;;;3.40;;
61962;SDS011;47927;42.646;23.096;2023-05-27T12:35:42;11.10;;;4.25;;
61962;SDS011;47927;42.646;23.096;2023-05-27T12:38:08;9.73;;;4.82;;
61962;SDS011;47927;42.646;23.096;2023-05-27T12:40:33;6.60;;;4.18;;
61962;SDS011;47927;42.646;23.096;2023-05-27T12:42:59;5.75;;;2.90;;
61962;SDS011;47927;42.646;23.096;2023-05-27T12:45:25;7.78;;;3.95;;
61962;SDS011;47927;42.646;23.096;2023-05-27T12:47:51;6.18;;;3.63;;
61962;SDS011;47927;42.646;23.096;2023-05-27T12:50:17;6.63;;;4.10;;
61962;SDS011;47927;42.646;23.096;2023-05-27T12:52:43;8.55;;;4.15;;
61962;SDS011;47927;42.646;23.096;2023-05-27T12:55:16;7.72;;;3.90;;
61962;SDS011;47927;42.646;23.096;2023-05-27T12:57:49;5.35;;;3.22;;
61962;SDS011;47927;42.646;23.096;2023-05-27T13:00:16;5.40;;;3.40;;
61962;SDS011;47927;42.646;23.096;2023-05-27T13:02:42;7.32;;;3.40;;
61962;SDS011;47927;42.646;23.096;2023-05-27T13:05:09;8.90;;;4.10;;
61962;SDS011;47927;42.646;23.096;2023-05-27T13:07:35;8.45;;;4.50;;
61962;SDS011;47927;42.646;23.096;2023-05-27T13:10:04;6.93;;;3.72;;
61962;SDS011;47927;42.646;23.096;2023-05-27T13:12:32;5.10;;;3.38;;
61962;SDS011;47927;42.646;23.096;2023-05-27T13:14:59;4.95;;;3.17;;
61962;SDS011;47927;42.646;23.096;2023-05-27T13:17:26;4.68;;;3.00;;
61962;SDS011;47927;42.646;23.096;2023-05-27T13:19:52;7.78;;;3.90;;
61962;SDS011;47927;42.646;23.096;2023-05-27T13:22:18;5.40;;;3.50;;
61962;SDS011;47927;42.646;23.096;2023-05-27T13:24:43;5.78;;;3.63;;
61962;SDS011;47927;42.646;23.096;2023-05-27T13:27:09;5.30;;;3.53;;
61962;SDS011;47927;42.646;23.096;2023-05-27T13:29:35;6.78;;;4.15;;
61962;SDS011;47927;42.646;23.096;2023-05-27T13:32:01;5.97;;;4.00;;
61962;SDS011;47927;42.646;23.096;2023-05-27T13:34:27;5.60;;;3.53;;
61962;SDS011;47927;42.646;23.096;2023-05-27T13:36:55;6.80;;;3.90;;
61962;SDS011;47927;42.646;23.096;2023-05-27T13:39:21;7.25;;;3.92;;
61962;SDS011;47927;42.646;23.096;2023-05-27T13:41:46;7.15;;;3.75;;
61962;SDS011;47927;42.646;23.096;2023-05-27T13:44:13;8.05;;;3.90;;
61962;SDS011;47927;42.646;23.096;2023-05-27T13:46:39;7.40;;;3.55;;
61962;SDS011;47927;42.646;23.096;2023-05-27T13:49:04;8.35;;;4.00;;
61962;SDS011;47927;42.646;23.096;2023-05-27T13:51:30;5.18;;;3.30;;
61962;SDS011;47927;42.646;23.096;2023-05-27T13:53:56;6.43;;;3.58;;
61962;SDS011;47927;42.646;23.096;2023-05-27T13:56:22;5.53;;;3.40;;
61962;SDS011;47927;42.646;23.096;2023-05-27T13:58:48;5.80;;;3.38;;
61962;SDS011;47927;42.646;23.096;2023-05-27T14:01:15;7.22;;;3.70;;
61962;SDS011;47927;42.646;23.096;2023-05-27T14:03:40;5.20;;;3.50;;
61962;SDS011;47927;42.646;23.096;2023-05-27T14:06:06;6.60;;;3.78;;
61962;SDS011;47927;42.646;23.096;2023-05-27T14:08:32;8.15;;;4.10;;
61962;SDS011;47927;42.646;23.096;2023-05-27T14:10:58;5.65;;;3.65;;
61962;SDS011;47927;42.646;23.096;2023-05-27T14:13:24;6.03;;;3.47;;
61962;SDS011;47927;42.646;23.096;2023-05-27T14:15:50;4.93;;;3.30;;
61962;SDS011;47927;42.646;23.096;2023-05-27T14:18:16;6.45;;;4.45;;
61962;SDS011;47927;42.646;23.096;2023-05-27T14:20:43;5.38;;;3.78;;
61962;SDS011;47927;42.646;23.096;2023-05-27T14:23:08;5.65;;;3.42;;
61962;SDS011;47927;42.646;23.096;2023-05-27T14:25:36;6.70;;;3.42;;
61962;SDS011;47927;42.646;23.096;2023-05-27T14:28:02;8.90;;;4.20;;
61962;SDS011;47927;42.646;23.096;2023-05-27T14:30:29;13.35;;;4.53;;
61962;SDS011;47927;42.646;23.096;2023-05-27T14:32:56;5.82;;;3.60;;
61962;SDS011;47927;42.646;23.096;2023-05-27T14:35:27;5.72;;;4.00;;
61962;SDS011;47927;42.646;23.096;2023-05-27T14:37:52;5.60;;;3.80;;
61962;SDS011;47927;42.646;23.096;2023-05-27T14:40:18;5.82;;;3.63;;
61962;SDS011;47927;42.646;23.096;2023-05-27T14:42:44;7.05;;;3.83;;
61962;SDS011;47927;42.646;23.096;2023-05-27T14:45:09;6.35;;;3.97;;
61962;SDS011;47927;42.646;23.096;2023-05-27T14:47:35;6.10;;;3.45;;
61962;SDS011;47927;42.646;23.096;2023-05-27T14:50:01;6.47;;;3.60;;
61962;SDS011;47927;42.646;23.096;2023-05-27T14:52:27;5.95;;;3.75;;